createdAt,value
2024-01-11T00:00:11.705Z,100.00
2024-01-11T00:12:12.140Z,100.00
2024-01-11T00:24:12.591Z,100.00
2024-01-11T00:36:13.052Z,100.00
2024-01-11T00:48:13.532Z,100.00
2024-01-11T01:00:13.925Z,100.00
2024-01-11T01:12:14.360Z,100.00
2024-01-11T01:24:14.842Z,100.00
2024-01-11T01:36:15.309Z,100.00
2024-01-11T01:48:15.811Z,100.00
2024-01-11T02:00:16.199Z,100.00
2024-01-11T02:12:16.648Z,100.00
2024-01-11T02:24:17.072Z,100.00
2024-01-11T02:36:17.551Z,100.00
2024-01-11T02:48:18.056Z,100.00
2024-01-11T03:00:18.461Z,100.00
2024-01-11T03:12:18.934Z,100.00
2024-01-11T03:24:19.367Z,100.00
2024-01-11T03:36:19.820Z,100.00
2024-01-11T03:48:20.464Z,100.00
2024-01-11T04:00:20.695Z,100.00
2024-01-11T04:12:21.148Z,100.00
2024-01-11T04:24:21.627Z,100.00
2024-01-11T04:36:22.050Z,100.00
2024-01-11T04:48:22.554Z,100.00
2024-01-11T05:00:22.951Z,100.00
2024-01-11T05:12:23.454Z,100.00
2024-01-11T05:24:23.881Z,100.00
2024-01-11T05:36:24.316Z,100.00
2024-01-11T05:48:24.776Z,100.00
2024-01-11T06:00:25.284Z,100.00
2024-01-11T06:12:25.667Z,100.00
2024-01-11T06:24:26.109Z,100.00
2024-01-11T06:36:26.559Z,100.00
2024-01-11T06:48:27.193Z,100.00
2024-01-11T07:00:27.506Z,100.00
2024-01-11T07:12:27.940Z,100.00
2024-01-11T07:24:28.380Z,100.00
2024-01-11T07:36:28.824Z,100.00
2024-01-11T07:48:29.360Z,100.00
2024-01-11T08:00:29.767Z,100.00
2024-01-11T08:12:30.174Z,100.00
2024-01-11T08:24:30.619Z,100.00
2024-01-11T08:36:31.073Z,100.00
2024-01-11T08:48:31.815Z,100.00
2024-01-11T09:00:31.994Z,100.00
2024-01-11T09:12:32.474Z,100.00
2024-01-11T09:24:36.149Z,100.00
2024-01-11T09:36:33.322Z,100.00
2024-01-11T09:48:33.840Z,100.00
2024-01-11T10:00:34.319Z,100.00
2024-01-11T10:12:34.703Z,100.00
2024-01-11T10:24:35.132Z,100.00
2024-01-11T10:36:35.609Z,99.04
2024-01-11T10:48:36.134Z,100.00
2024-01-11T11:00:36.580Z,99.02
2024-01-11T11:12:36.972Z,88.67
2024-01-11T11:24:37.432Z,83.80
2024-01-11T11:36:37.849Z,83.18
2024-01-11T11:48:38.406Z,82.38
2024-01-11T12:00:38.816Z,77.77
2024-01-11T12:12:39.241Z,91.52
2024-01-11T12:24:39.858Z,89.03
2024-01-11T12:36:40.233Z,94.44
2024-01-11T12:48:40.718Z,100.00
2024-01-11T13:00:41.101Z,100.00
2024-01-11T13:12:41.483Z,87.29
2024-01-11T13:24:41.982Z,92.41
2024-01-11T13:36:42.419Z,100.00
2024-01-11T13:48:42.918Z,100.00
2024-01-11T14:00:43.587Z,100.00
2024-01-11T14:12:43.903Z,100.00
2024-01-11T14:24:44.198Z,100.00
2024-01-11T14:36:44.677Z,100.00
2024-01-11T14:48:45.185Z,100.00
2024-01-11T15:00:45.578Z,100.00
2024-01-11T15:12:46.022Z,100.00
2024-01-11T15:24:46.457Z,100.00
2024-01-11T15:36:46.929Z,100.00
2024-01-11T15:48:47.450Z,100.00
2024-01-11T16:00:47.970Z,100.00
2024-01-11T16:12:48.284Z,100.00
2024-01-11T16:24:48.725Z,100.00
2024-01-11T16:36:49.202Z,100.00
2024-01-11T16:48:49.766Z,100.00
2024-01-11T17:00:50.145Z,100.00
2024-01-11T17:12:50.507Z,100.00
2024-01-11T17:24:50.996Z,100.00
2024-01-11T17:36:51.425Z,100.00
2024-01-11T17:48:52.014Z,100.00
2024-01-11T18:00:52.346Z,100.00
2024-01-11T18:12:52.807Z,100.00
2024-01-11T18:24:53.262Z,100.00
2024-01-11T18:36:53.688Z,100.00
2024-01-11T18:48:54.422Z,100.00
2024-01-11T19:00:54.680Z,100.00
2024-01-11T19:12:55.058Z,100.00
2024-01-11T19:24:55.498Z,100.00
2024-01-11T19:36:55.988Z,100.00
2024-01-11T19:48:56.546Z,100.00
2024-01-11T20:00:56.935Z,100.00
2024-01-11T20:12:57.314Z,100.00
2024-01-11T20:24:57.772Z,100.00
2024-01-11T20:36:58.210Z,100.00
2024-01-11T20:48:58.850Z,100.00
2024-01-11T21:00:59.172Z,100.00
2024-01-11T21:12:59.592Z,100.00
2024-01-11T21:24:59.984Z,100.00
2024-01-11T21:37:00.477Z,100.00
2024-01-11T21:49:00.996Z,100.00
2024-01-11T22:01:01.456Z,100.00
2024-01-11T22:13:01.818Z,100.00
2024-01-11T22:25:02.302Z,100.00
2024-01-11T22:37:02.744Z,100.00
2024-01-11T22:49:03.236Z,100.00
2024-01-11T23:01:03.683Z,100.00
2024-01-11T23:13:04.106Z,100.00
2024-01-11T23:25:04.532Z,100.00
2024-01-11T23:37:04.980Z,100.00
2024-01-11T23:49:05.498Z,100.00
